Time;durP1;ratioP1;P1;durP2;ratioP2;P2;SDS_P1;SDS_P2;PMS_P1;PMS_P2;Temp;Humidity;BMP_temperature;BMP_pressure;BME280_temperature;BME280_humidity;BME280_pressure;Samples;Min_cycle;Max_cycle;Signal;HPM_P1;HPM_P2
2022/01/17 00:00:34;;;;;;;10.97;2.13;;;7.30;99.90;;;;;;4983117;28;20534;-75
2022/01/17 00:03:00;;;;;;;8.07;2.40;;;7.30;99.90;;;;;;4980762;28;20665;-74
2022/01/17 00:05:34;;;;;;;9.80;2.70;;;7.20;99.90;;;;;;4982367;28;20461;-74
2022/01/17 00:07:59;;;;;;;7.80;2.83;;;7.20;99.90;;;;;;4982918;28;20827;-75
2022/01/17 00:10:25;;;;;;;9.13;2.77;;;7.30;99.90;;;;;;4980027;28;20563;-74
2022/01/17 00:12:53;;;;;;;9.30;2.37;;;7.30;99.90;;;;;;4981701;28;20222;-74
2022/01/17 00:15:28;;;;;;;6.87;2.10;;;7.30;99.90;;;;;;4982104;28;20182;-74
2022/01/17 00:18:23;;;;;;;8.53;1.87;;;7.30;99.90;;;;;;4982930;28;20913;-74
2022/01/17 00:20:46;;;;;;;8.40;1.97;;;7.40;99.90;;;;;;4981647;28;20559;-74
2022/01/17 00:23:16;;;;;;;9.70;1.97;;;7.30;99.90;;;;;;4979720;28;20493;-74
2022/01/17 00:25:42;;;;;;;8.90;2.07;;;7.40;99.90;;;;;;4980657;28;20523;-75
2022/01/17 00:28:08;;;;;;;6.37;2.63;;;7.40;99.90;;;;;;4983158;28;20469;-73
2022/01/17 00:30:36;;;;;;;7.17;2.63;;;7.30;99.90;;;;;;4981661;28;20445;-74
2022/01/17 00:33:01;;;;;;;9.10;2.10;;;7.30;99.90;;;;;;4984573;28;20589;-74
2022/01/17 00:35:27;;;;;;;10.10;2.47;;;7.40;99.90;;;;;;4997001;28;20445;-76
2022/01/17 00:37:54;;;;;;;9.43;1.77;;;7.40;99.90;;;;;;4983382;28;20293;-74
2022/01/17 00:40:22;;;;;;;5.07;2.00;;;7.40;99.90;;;;;;4984317;28;20267;-74
2022/01/17 00:42:48;;;;;;;10.70;2.13;;;7.40;99.90;;;;;;4986074;28;20464;-74
2022/01/17 00:45:15;;;;;;;8.70;2.37;;;7.20;99.90;;;;;;4986336;28;20481;-74
2022/01/17 00:47:41;;;;;;;9.40;2.60;;;7.20;99.90;;;;;;4987976;28;20509;-74
2022/01/17 00:50:10;;;;;;;7.87;2.23;;;7.20;99.90;;;;;;4985622;28;20556;-75
2022/01/17 00:52:41;;;;;;;6.33;1.97;;;7.30;99.90;;;;;;4977171;28;20912;-75
2022/01/17 00:55:07;;;;;;;4.00;1.53;;;7.30;99.90;;;;;;4983222;28;20449;-75
2022/01/17 00:57:32;;;;;;;9.03;2.27;;;7.30;99.90;;;;;;4987060;28;20441;-74
2022/01/17 00:59:58;;;;;;;7.33;2.70;;;7.30;99.90;;;;;;4986485;28;20991;-74
2022/01/17 01:02:23;;;;;;;11.30;2.70;;;7.30;99.90;;;;;;4986285;28;20654;-74
2022/01/17 01:04:49;;;;;;;6.93;2.10;;;7.40;99.90;;;;;;4983561;28;20189;-75
2022/01/17 01:07:14;;;;;;;11.70;2.33;;;7.40;99.90;;;;;;4981576;28;20210;-76
2022/01/17 01:09:55;;;;;;;10.67;2.40;;;7.40;99.90;;;;;;4984321;28;20300;-74
2022/01/17 01:12:23;;;;;;;9.60;2.27;;;7.40;99.90;;;;;;4984443;28;20270;-75
2022/01/17 01:14:49;;;;;;;9.43;1.93;;;7.40;99.90;;;;;;4974170;28;20473;-75
2022/01/17 01:17:30;;;;;;;10.80;1.80;;;7.40;99.90;;;;;;4984882;28;20488;-75
2022/01/17 01:20:05;;;;;;;9.97;2.23;;;7.40;99.90;;;;;;4982548;28;20222;-75
2022/01/17 01:28:04;;;;;;;9.60;2.97;;;7.40;99.90;;;;;;4984518;28;20456;-75
2022/01/17 01:30:32;;;;;;;12.27;2.10;;;7.50;99.90;;;;;;4982532;28;20473;-76
2022/01/17 01:32:59;;;;;;;10.70;2.10;;;7.50;99.90;;;;;;4982124;28;20804;-74
2022/01/17 01:35:27;;;;;;;6.53;2.30;;;7.50;99.90;;;;;;4984963;28;20771;-75
2022/01/17 01:37:55;;;;;;;6.30;2.37;;;7.60;99.90;;;;;;4982971;28;20786;-75
2022/01/17 01:40:24;;;;;;;11.73;3.73;;;7.50;99.90;;;;;;4982749;28;20508;-76
2022/01/17 01:42:53;;;;;;;11.30;2.27;;;7.50;99.90;;;;;;4982841;28;21029;-75
2022/01/17 01:45:21;;;;;;;9.57;2.23;;;7.60;99.90;;;;;;4984032;28;20445;-75
2022/01/17 01:47:47;;;;;;;11.90;1.63;;;7.50;99.90;;;;;;4984717;28;20461;-75
2022/01/17 01:50:15;;;;;;;8.30;1.93;;;7.50;99.90;;;;;;4991387;28;20465;-75
2022/01/17 01:52:45;;;;;;;7.23;2.03;;;7.50;99.90;;;;;;5000076;28;20972;-75
2022/01/17 01:55:15;;;;;;;9.20;2.57;;;7.60;99.90;;;;;;5001216;28;20495;-75
2022/01/17 01:57:42;;;;;;;10.73;2.70;;;7.60;99.90;;;;;;4985956;28;20457;-75
2022/01/17 02:00:10;;;;;;;7.33;1.93;;;7.60;99.90;;;;;;4985448;28;20465;-75
2022/01/17 02:02:47;;;;;;;12.43;2.67;;;7.60;99.90;;;;;;4986598;28;20852;-75
2022/01/17 02:05:12;;;;;;;13.10;2.50;;;7.60;99.90;;;;;;5001223;28;20481;-75
2022/01/17 02:07:43;;;;;;;10.20;2.60;;;7.60;99.90;;;;;;4985793;28;20485;-75
2022/01/17 02:10:09;;;;;;;9.33;2.10;;;7.70;99.90;;;;;;4992086;28;20210;-74
2022/01/17 02:12:37;;;;;;;8.70;2.10;;;7.70;99.90;;;;;;4983276;28;20478;-75
2022/01/17 02:15:04;;;;;;;10.17;1.87;;;7.70;99.90;;;;;;4984252;28;20457;-74
2022/01/17 02:17:33;;;;;;;10.30;2.97;;;7.70;99.90;;;;;;4984023;28;20507;-74
2022/01/17 02:20:09;;;;;;;8.13;2.23;;;7.70;99.90;;;;;;4984527;28;20840;-75
2022/01/17 02:22:39;;;;;;;16.00;2.97;;;7.60;99.90;;;;;;4983479;28;20542;-74
2022/01/17 02:25:05;;;;;;;5.33;2.00;;;7.60;99.90;;;;;;4986478;28;20446;-74
2022/01/17 02:27:31;;;;;;;13.33;2.50;;;7.70;99.90;;;;;;4988162;28;20445;-74
2022/01/17 02:29:59;;;;;;;11.10;2.37;;;7.60;99.90;;;;;;4986476;28;20494;-75
2022/01/17 02:32:27;;;;;;;10.30;2.50;;;7.70;99.90;;;;;;5000695;28;20225;-74
2022/01/17 02:35:13;;;;;;;8.20;2.73;;;7.80;99.90;;;;;;4986036;28;20457;-75
2022/01/17 02:37:42;;;;;;;11.43;3.27;;;7.70;99.90;;;;;;4992531;28;21166;-74
2022/01/17 02:40:08;;;;;;;8.63;3.07;;;7.70;99.90;;;;;;4984707;28;20472;-75
2022/01/17 02:42:37;;;;;;;9.23;2.60;;;7.70;99.90;;;;;;4992079;28;20484;-75
2022/01/17 02:45:19;;;;;;;10.40;2.00;;;7.80;99.90;;;;;;4983731;28;20461;-75
2022/01/17 02:47:47;;;;;;;6.67;2.00;;;7.70;99.90;;;;;;4984230;28;20472;-75
2022/01/17 02:50:13;;;;;;;10.47;2.43;;;7.80;99.90;;;;;;4982982;28;20807;-74
2022/01/17 02:52:39;;;;;;;9.03;3.00;;;7.80;99.90;;;;;;4982622;28;20458;-75
2022/01/17 02:55:05;;;;;;;9.70;2.40;;;7.70;99.90;;;;;;4982534;28;20245;-74
2022/01/17 02:57:34;;;;;;;6.87;1.70;;;7.70;99.90;;;;;;4976109;28;20673;-74
2022/01/17 03:00:04;;;;;;;7.90;2.13;;;7.70;99.90;;;;;;4982502;28;20956;-75
2022/01/17 03:02:33;;;;;;;7.93;2.50;;;7.70;99.90;;;;;;4984689;28;20456;-74
2022/01/17 03:05:05;;;;;;;9.93;2.53;;;7.80;99.90;;;;;;4983927;28;20448;-74
2022/01/17 03:07:31;;;;;;;5.87;1.73;;;7.80;99.90;;;;;;4983368;28;20698;-74
2022/01/17 03:10:11;;;;;;;11.90;2.83;;;7.70;99.90;;;;;;4983315;28;20919;-74
2022/01/17 03:12:36;;;;;;;10.93;3.33;;;7.80;99.90;;;;;;4985883;28;20220;-74
2022/01/17 03:15:02;;;;;;;15.80;2.27;;;7.70;99.90;;;;;;4982852;28;20433;-74
2022/01/17 03:17:30;;;;;;;11.73;2.27;;;7.60;99.90;;;;;;4984474;28;20197;-74
2022/01/17 03:19:56;;;;;;;9.43;2.50;;;7.70;99.90;;;;;;4985890;28;20492;-74
2022/01/17 03:22:21;;;;;;;9.17;2.37;;;7.80;99.90;;;;;;4983868;28;20469;-75
2022/01/17 03:24:49;;;;;;;8.20;2.43;;;7.80;99.90;;;;;;4982157;28;20190;-74
2022/01/17 03:27:15;;;;;;;6.13;2.10;;;7.70;99.90;;;;;;4986707;28;20190;-74
2022/01/17 03:29:40;;;;;;;17.37;3.60;;;7.70;99.90;;;;;;4984809;28;20474;-74
2022/01/17 03:32:06;;;;;;;7.27;2.10;;;7.80;99.90;;;;;;4984757;28;20537;-74
2022/01/17 03:34:32;;;;;;;10.10;3.03;;;7.80;99.90;;;;;;4984197;28;20217;-74
2022/01/17 03:37:00;;;;;;;9.27;3.13;;;7.80;99.90;;;;;;4986492;28;20453;-74
2022/01/17 03:39:25;;;;;;;9.53;2.40;;;7.80;99.90;;;;;;4983134;28;20705;-75
2022/01/17 03:41:51;;;;;;;8.00;2.80;;;7.80;99.90;;;;;;4985212;28;20469;-74
2022/01/17 03:44:16;;;;;;;8.30;2.97;;;7.80;99.90;;;;;;4982982;28;20278;-74
2022/01/17 03:46:42;;;;;;;8.63;2.67;;;7.80;99.90;;;;;;4984030;28;20680;-73
2022/01/17 03:49:10;;;;;;;5.80;2.37;;;7.80;99.90;;;;;;4997641;28;20214;-74
2022/01/17 03:51:36;;;;;;;4.97;1.80;;;7.80;99.90;;;;;;4980620;28;20721;-74
2022/01/17 03:54:09;;;;;;;12.53;2.50;;;7.80;99.90;;;;;;4980371;28;20441;-73
2022/01/17 03:56:37;;;;;;;8.87;2.40;;;7.90;99.90;;;;;;4982145;28;20186;-75
2022/01/17 03:59:05;;;;;;;7.73;2.03;;;7.90;99.90;;;;;;4973988;28;22968;-74
2022/01/17 04:01:31;;;;;;;6.67;2.13;;;7.90;99.90;;;;;;4982279;28;20896;-74
2022/01/17 04:03:56;;;;;;;7.53;2.37;;;7.80;99.90;;;;;;5000828;28;20484;-75
2022/01/17 04:06:23;;;;;;;7.80;2.10;;;7.80;99.90;;;;;;4981851;28;20397;-74
2022/01/17 04:08:48;;;;;;;5.70;1.70;;;7.80;99.90;;;;;;4981259;28;20237;-74
2022/01/17 04:11:14;;;;;;;5.33;2.10;;;7.80;99.90;;;;;;4983548;28;20492;-74
2022/01/17 04:13:39;;;;;;;8.43;2.37;;;7.80;99.90;;;;;;4984264;28;20268;-74
2022/01/17 04:16:07;;;;;;;7.40;2.40;;;7.90;99.90;;;;;;4986904;28;20244;-74
2022/01/17 15:00:47;;;;;;;11.13;3.40;;;7.40;99.90;;;;;;4930617;29;20477;-92
2022/01/17 16:20:51;;;;;;;13.10;3.60;;;6.40;99.90;;;;;;4934807;29;20519;-87
2022/01/17 16:23:18;;;;;;;15.20;3.33;;;6.30;99.90;;;;;;4929343;29;20509;-91
2022/01/17 16:25:49;;;;;;;15.03;4.10;;;6.30;99.90;;;;;;4924622;29;20459;-90
2022/01/17 16:28:15;;;;;;;11.70;3.57;;;6.20;99.90;;;;;;4946035;28;20559;-88
2022/01/17 16:30:40;;;;;;;13.63;3.77;;;6.20;99.90;;;;;;4934975;29;20493;-90
2022/01/17 16:33:06;;;;;;;12.80;3.10;;;6.30;99.90;;;;;;4931587;29;20523;-91
2022/01/17 16:35:32;;;;;;;9.83;2.90;;;6.40;99.90;;;;;;4927680;29;20587;-90
2022/01/17 16:37:59;;;;;;;13.30;4.10;;;6.40;99.90;;;;;;4936805;29;20192;-89
2022/01/17 16:40:28;;;;;;;11.47;5.20;;;6.20;99.90;;;;;;4933111;29;20503;-90
2022/01/17 16:42:57;;;;;;;16.30;4.50;;;6.20;99.90;;;;;;4928748;29;20455;-89
2022/01/17 16:45:23;;;;;;;11.53;3.87;;;6.10;99.90;;;;;;4930219;29;20463;-90
2022/01/17 16:47:49;;;;;;;14.27;4.57;;;6.10;99.90;;;;;;4928930;29;20459;-88
2022/01/17 16:50:21;;;;;;;11.33;4.00;;;6.40;99.90;;;;;;4929948;29;20484;-88
2022/01/17 16:52:47;;;;;;;11.17;3.67;;;6.30;99.90;;;;;;4927783;29;20455;-89
2022/01/17 16:55:13;;;;;;;11.80;3.63;;;6.00;99.90;;;;;;4923213;29;20502;-89
2022/01/17 16:57:39;;;;;;;12.33;4.03;;;6.00;99.90;;;;;;4925497;29;20519;-89
2022/01/17 17:00:05;;;;;;;13.20;4.50;;;6.00;99.90;;;;;;4926995;29;21229;-88
2022/01/17 17:02:31;;;;;;;12.40;4.47;;;6.00;99.90;;;;;;4946159;29;21166;-88
2022/01/17 17:04:56;;;;;;;15.23;5.40;;;6.00;99.90;;;;;;4930441;29;20456;-91
2022/01/17 17:07:25;;;;;;;12.90;4.37;;;6.00;99.90;;;;;;4933838;29;20207;-90
2022/01/17 17:09:51;;;;;;;14.30;4.63;;;5.90;99.90;;;;;;4931142;29;20258;-91
2022/01/17 17:12:17;;;;;;;17.97;4.57;;;5.80;99.90;;;;;;4936347;29;20470;-91
2022/01/17 17:14:42;;;;;;;12.07;4.43;;;5.90;99.90;;;;;;4939556;29;20195;-91
2022/01/17 17:17:09;;;;;;;10.17;4.20;;;5.90;99.90;;;;;;4934801;29;20289;-88
2022/01/17 17:19:35;;;;;;;12.70;4.60;;;6.00;99.90;;;;;;4930933;29;20256;-87
2022/01/17 17:22:06;;;;;;;15.60;4.80;;;6.10;99.90;;;;;;4935318;29;20451;-91
2022/01/17 17:24:37;;;;;;;12.30;4.20;;;5.90;99.90;;;;;;4932929;29;20479;-88
2022/01/17 17:27:03;;;;;;;14.87;4.50;;;5.80;99.90;;;;;;4934967;29;20452;-89
2022/01/17 17:29:29;;;;;;;12.33;5.00;;;5.70;99.90;;;;;;4930269;29;20490;-89
2022/01/17 17:31:55;;;;;;;13.07;4.53;;;5.70;99.90;;;;;;4932720;29;20542;-90
2022/01/17 17:34:21;;;;;;;18.07;4.83;;;5.70;99.90;;;;;;4926108;29;20189;-89
2022/01/17 17:36:47;;;;;;;16.43;4.70;;;5.90;99.90;;;;;;4930309;29;20185;-88
2022/01/17 17:39:22;;;;;;;14.20;4.70;;;5.70;99.90;;;;;;4932098;29;20284;-90
2022/01/17 17:41:49;;;;;;;18.83;5.97;;;5.90;99.90;;;;;;4931626;29;20523;-90
2022/01/17 17:44:15;;;;;;;16.60;5.10;;;5.90;99.90;;;;;;4933701;29;20452;-91
2022/01/17 17:46:41;;;;;;;12.60;4.37;;;5.60;99.90;;;;;;4931444;29;20456;-89
2022/01/17 17:49:07;;;;;;;12.30;4.20;;;5.60;99.90;;;;;;4932733;29;20483;-88
2022/01/17 17:51:34;;;;;;;13.73;4.07;;;5.60;99.90;;;;;;4937248;29;20507;-89
2022/01/17 17:54:08;;;;;;;14.70;4.63;;;5.50;99.90;;;;;;4932364;29;22410;-90
2022/01/17 17:56:34;;;;;;;19.47;5.07;;;5.60;99.90;;;;;;4933145;29;20440;-90
2022/01/17 17:59:01;;;;;;;10.27;4.87;;;5.80;99.90;;;;;;4931957;29;20450;-90
2022/01/17 18:01:49;;;;;;;16.83;5.50;;;5.70;99.90;;;;;;4935756;29;20472;-90
2022/01/17 18:04:18;;;;;;;16.47;4.83;;;5.50;99.90;;;;;;4936357;29;20479;-89
2022/01/17 18:06:45;;;;;;;11.23;4.47;;;5.40;99.90;;;;;;4934760;29;20457;-89
2022/01/17 18:09:14;;;;;;;16.00;4.80;;;5.70;99.90;;;;;;4936385;29;20543;-89
2022/01/17 18:11:40;;;;;;;14.83;4.70;;;5.70;99.90;;;;;;4932149;29;20456;-89
2022/01/17 18:14:06;;;;;;;15.60;5.13;;;5.60;99.90;;;;;;4934916;29;20467;-90
2022/01/17 18:16:32;;;;;;;13.27;4.20;;;5.40;99.90;;;;;;4932843;29;20188;-90
2022/01/17 18:19:00;;;;;;;21.77;5.30;;;5.40;99.90;;;;;;4932400;29;20455;-90
2022/01/17 18:21:26;;;;;;;9.53;4.23;;;5.40;99.90;;;;;;4932625;29;20639;-90
2022/01/17 18:23:52;;;;;;;18.10;5.53;;;5.40;99.90;;;;;;4937915;29;20504;-88
2022/01/17 18:26:18;;;;;;;16.77;5.30;;;5.10;99.90;;;;;;4938027;29;20512;-91
2022/01/17 18:28:48;;;;;;;17.33;5.00;;;5.40;99.90;;;;;;4929667;29;20559;-92
2022/01/17 18:31:16;;;;;;;13.17;5.63;;;5.40;99.90;;;;;;4942276;29;20515;-92
2022/01/17 18:33:42;;;;;;;8.67;4.43;;;5.30;99.90;;;;;;4943967;29;20455;-90
2022/01/17 18:36:11;;;;;;;16.40;5.17;;;5.50;99.90;;;;;;4948091;29;20460;-94
2022/01/17 18:38:48;;;;;;;18.70;4.77;;;5.30;99.90;;;;;;4948029;29;20200;-94
2022/01/17 18:41:15;;;;;;;15.00;4.43;;;5.30;99.90;;;;;;4936771;29;20591;-93
2022/01/17 18:43:41;;;;;;;16.70;4.90;;;5.50;99.90;;;;;;4929651;29;20449;-91
2022/01/17 18:46:07;;;;;;;19.43;5.10;;;5.50;99.90;;;;;;4928566;29;20463;-91
2022/01/17 18:48:33;;;;;;;16.80;4.27;;;5.50;99.90;;;;;;4939785;29;20538;-91
2022/01/17 18:51:01;;;;;;;8.83;3.93;;;5.30;99.90;;;;;;4935512;29;20213;-91
2022/01/17 18:53:31;;;;;;;11.40;3.83;;;5.50;99.90;;;;;;4937069;29;20448;-91
2022/01/17 18:55:57;;;;;;;11.80;3.87;;;5.30;99.90;;;;;;4932283;29;20440;-90
2022/01/17 18:58:23;;;;;;;12.30;4.60;;;5.50;99.90;;;;;;4939343;29;20978;-90
2022/01/17 19:00:48;;;;;;;14.23;4.70;;;5.50;99.90;;;;;;4938173;29;20472;-87
2022/01/17 19:03:14;;;;;;;14.77;4.70;;;5.20;99.90;;;;;;4934717;29;20204;-90
2022/01/17 19:05:41;;;;;;;12.97;4.60;;;5.20;99.90;;;;;;4935731;29;20205;-90
